sensor_id;sensor_type;location;lat;lon;timestamp;P1;durP1;ratioP1;P2;durP2;ratioP2
36321;SDS011;23564;48.290;11.460;2023-06-22T00:00:49;13.93;;;6.63;;
36321;SDS011;23564;48.290;11.460;2023-06-22T00:03:15;13.70;;;6.82;;
36321;SDS011;23564;48.290;11.460;2023-06-22T00:05:45;10.35;;;6.00;;
36321;SDS011;23564;48.290;11.460;2023-06-22T00:08:11;13.15;;;6.40;;
36321;SDS011;23564;48.290;11.460;2023-06-22T00:10:37;13.43;;;6.45;;
36321;SDS011;23564;48.290;11.460;2023-06-22T00:13:03;15.50;;;6.05;;
36321;SDS011;23564;48.290;11.460;2023-06-22T00:15:29;12.80;;;6.10;;
36321;SDS011;23564;48.290;11.460;2023-06-22T00:17:55;11.13;;;6.15;;
36321;SDS011;23564;48.290;11.460;2023-06-22T00:20:22;18.23;;;6.97;;
36321;SDS011;23564;48.290;11.460;2023-06-22T00:22:48;15.25;;;5.78;;
36321;SDS011;23564;48.290;11.460;2023-06-22T00:25:13;15.50;;;6.88;;
36321;SDS011;23564;48.290;11.460;2023-06-22T00:27:39;10.88;;;6.38;;
36321;SDS011;23564;48.290;11.460;2023-06-22T00:30:05;15.77;;;6.00;;
36321;SDS011;23564;48.290;11.460;2023-06-22T00:32:31;12.68;;;5.28;;
36321;SDS011;23564;48.290;11.460;2023-06-22T00:34:57;15.50;;;5.93;;
36321;SDS011;23564;48.290;11.460;2023-06-22T00:37:22;10.02;;;5.93;;
36321;SDS011;23564;48.290;11.460;2023-06-22T00:39:50;15.32;;;5.80;;
36321;SDS011;23564;48.290;11.460;2023-06-22T00:42:16;15.15;;;5.97;;
36321;SDS011;23564;48.290;11.460;2023-06-22T00:44:42;9.32;;;5.43;;
36321;SDS011;23564;48.290;11.460;2023-06-22T00:47:08;11.65;;;6.45;;
36321;SDS011;23564;48.290;11.460;2023-06-22T00:49:34;10.73;;;6.22;;
36321;SDS011;23564;48.290;11.460;2023-06-22T00:52:00;15.30;;;6.72;;
36321;SDS011;23564;48.290;11.460;2023-06-22T00:54:25;17.48;;;5.90;;
36321;SDS011;23564;48.290;11.460;2023-06-22T00:56:53;16.13;;;6.78;;
36321;SDS011;23564;48.290;11.460;2023-06-22T00:59:21;9.85;;;5.60;;
36321;SDS011;23564;48.290;11.460;2023-06-22T01:01:47;10.82;;;5.82;;
36321;SDS011;23564;48.290;11.460;2023-06-22T01:04:12;13.57;;;5.82;;
36321;SDS011;23564;48.290;11.460;2023-06-22T01:06:44;13.43;;;6.60;;
36321;SDS011;23564;48.290;11.460;2023-06-22T01:09:15;17.48;;;7.20;;
36321;SDS011;23564;48.290;11.460;2023-06-22T01:11:52;10.73;;;5.90;;
36321;SDS011;23564;48.290;11.460;2023-06-22T01:14:38;12.25;;;6.82;;
36321;SDS011;23564;48.290;11.460;2023-06-22T01:19:56;13.13;;;6.65;;
36321;SDS011;23564;48.290;11.460;2023-06-22T01:22:25;14.23;;;6.20;;
36321;SDS011;23564;48.290;11.460;2023-06-22T01:25:08;12.60;;;6.88;;
36321;SDS011;23564;48.290;11.460;2023-06-22T01:27:39;17.05;;;6.75;;
36321;SDS011;23564;48.290;11.460;2023-06-22T01:30:21;15.40;;;6.63;;
36321;SDS011;23564;48.290;11.460;2023-06-22T01:32:50;13.15;;;6.65;;
36321;SDS011;23564;48.290;11.460;2023-06-22T01:35:17;14.27;;;6.72;;
36321;SDS011;23564;48.290;11.460;2023-06-22T01:37:44;13.68;;;6.50;;
36321;SDS011;23564;48.290;11.460;2023-06-22T01:40:10;13.20;;;6.65;;
36321;SDS011;23564;48.290;11.460;2023-06-22T01:42:37;18.75;;;6.78;;
36321;SDS011;23564;48.290;11.460;2023-06-22T01:45:03;13.32;;;6.18;;
36321;SDS011;23564;48.290;11.460;2023-06-22T01:47:30;15.35;;;6.40;;
36321;SDS011;23564;48.290;11.460;2023-06-22T01:49:56;16.25;;;6.53;;
36321;SDS011;23564;48.290;11.460;2023-06-22T01:52:22;18.85;;;6.30;;
36321;SDS011;23564;48.290;11.460;2023-06-22T01:54:47;12.98;;;6.43;;
36321;SDS011;23564;48.290;11.460;2023-06-22T01:57:13;15.27;;;6.43;;
36321;SDS011;23564;48.290;11.460;2023-06-22T01:59:41;13.88;;;6.10;;
36321;SDS011;23564;48.290;11.460;2023-06-22T02:02:18;12.57;;;6.32;;
36321;SDS011;23564;48.290;11.460;2023-06-22T02:04:52;14.63;;;6.40;;
36321;SDS011;23564;48.290;11.460;2023-06-22T02:07:23;12.95;;;6.53;;
36321;SDS011;23564;48.290;11.460;2023-06-22T02:09:52;13.38;;;6.35;;
36321;SDS011;23564;48.290;11.460;2023-06-22T02:12:22;12.35;;;6.10;;
36321;SDS011;23564;48.290;11.460;2023-06-22T02:14:50;14.57;;;7.50;;
36321;SDS011;23564;48.290;11.460;2023-06-22T02:17:17;12.10;;;6.85;;
36321;SDS011;23564;48.290;11.460;2023-06-22T02:19:43;11.13;;;7.00;;
36321;SDS011;23564;48.290;11.460;2023-06-22T02:22:09;14.10;;;6.97;;
36321;SDS011;23564;48.290;11.460;2023-06-22T02:24:35;16.20;;;6.95;;
36321;SDS011;23564;48.290;11.460;2023-06-22T02:27:01;10.98;;;6.68;;
36321;SDS011;23564;48.290;11.460;2023-06-22T02:29:27;16.95;;;6.50;;
36321;SDS011;23564;48.290;11.460;2023-06-22T02:31:53;17.20;;;6.68;;
36321;SDS011;23564;48.290;11.460;2023-06-22T02:34:19;14.85;;;7.40;;
36321;SDS011;23564;48.290;11.460;2023-06-22T02:36:46;12.73;;;6.20;;
36321;SDS011;23564;48.290;11.460;2023-06-22T02:39:22;18.38;;;7.22;;
36321;SDS011;23564;48.290;11.460;2023-06-22T02:41:49;15.30;;;6.70;;
36321;SDS011;23564;48.290;11.460;2023-06-22T02:44:16;17.15;;;7.38;;
36321;SDS011;23564;48.290;11.460;2023-06-22T02:46:42;13.05;;;6.82;;
36321;SDS011;23564;48.290;11.460;2023-06-22T02:49:07;13.50;;;6.82;;
36321;SDS011;23564;48.290;11.460;2023-06-22T02:51:33;16.02;;;7.22;;
36321;SDS011;23564;48.290;11.460;2023-06-22T02:53:59;13.45;;;6.55;;
36321;SDS011;23564;48.290;11.460;2023-06-22T02:56:25;17.80;;;7.60;;
36321;SDS011;23564;48.290;11.460;2023-06-22T02:58:51;10.75;;;6.93;;
36321;SDS011;23564;48.290;11.460;2023-06-22T03:01:17;15.30;;;7.13;;
36321;SDS011;23564;48.290;11.460;2023-06-22T03:06:15;21.35;;;6.97;;
36321;SDS011;23564;48.290;11.460;2023-06-22T03:08:40;13.73;;;7.78;;
36321;SDS011;23564;48.290;11.460;2023-06-22T03:11:06;14.52;;;7.22;;
36321;SDS011;23564;48.290;11.460;2023-06-22T03:13:32;15.60;;;7.18;;
36321;SDS011;23564;48.290;11.460;2023-06-22T03:15:58;14.93;;;8.02;;
36321;SDS011;23564;48.290;11.460;2023-06-22T03:18:24;14.15;;;7.07;;
36321;SDS011;23564;48.290;11.460;2023-06-22T03:20:50;17.98;;;7.45;;
36321;SDS011;23564;48.290;11.460;2023-06-22T03:23:15;17.30;;;7.30;;
36321;SDS011;23564;48.290;11.460;2023-06-22T03:25:41;21.45;;;7.93;;
36321;SDS011;23564;48.290;11.460;2023-06-22T03:28:09;17.27;;;7.72;;
36321;SDS011;23564;48.290;11.460;2023-06-22T03:30:35;16.95;;;7.47;;
36321;SDS011;23564;48.290;11.460;2023-06-22T03:33:00;18.42;;;7.82;;
36321;SDS011;23564;48.290;11.460;2023-06-22T03:35:26;17.30;;;7.47;;
36321;SDS011;23564;48.290;11.460;2023-06-22T03:37:52;12.85;;;7.60;;
36321;SDS011;23564;48.290;11.460;2023-06-22T03:40:17;11.52;;;7.15;;
36321;SDS011;23564;48.290;11.460;2023-06-22T03:42:43;18.13;;;7.35;;
36321;SDS011;23564;48.290;11.460;2023-06-22T03:45:09;13.77;;;7.40;;
36321;SDS011;23564;48.290;11.460;2023-06-22T03:47:35;17.38;;;7.35;;
36321;SDS011;23564;48.290;11.460;2023-06-22T03:50:00;14.38;;;7.43;;
36321;SDS011;23564;48.290;11.460;2023-06-22T03:52:28;14.15;;;7.57;;
36321;SDS011;23564;48.290;11.460;2023-06-22T03:54:54;16.42;;;7.47;;
36321;SDS011;23564;48.290;11.460;2023-06-22T03:57:20;14.55;;;6.55;;
36321;SDS011;23564;48.290;11.460;2023-06-22T03:59:45;14.27;;;7.32;;
36321;SDS011;23564;48.290;11.460;2023-06-22T04:02:11;16.95;;;8.40;;
36321;SDS011;23564;48.290;11.460;2023-06-22T04:04:37;21.50;;;8.38;;
36321;SDS011;23564;48.290;11.460;2023-06-22T04:07:04;16.08;;;7.63;;
36321;SDS011;23564;48.290;11.460;2023-06-22T04:09:29;13.98;;;7.30;;
36321;SDS011;23564;48.290;11.460;2023-06-22T04:11:55;20.80;;;7.85;;
36321;SDS011;23564;48.290;11.460;2023-06-22T04:14:21;14.45;;;6.90;;
36321;SDS011;23564;48.290;11.460;2023-06-22T04:16:46;16.42;;;7.65;;
36321;SDS011;23564;48.290;11.460;2023-06-22T04:19:12;20.73;;;7.97;;
36321;SDS011;23564;48.290;11.460;2023-06-22T04:21:42;14.50;;;6.80;;
36321;SDS011;23564;48.290;11.460;2023-06-22T04:24:09;16.95;;;7.10;;
36321;SDS011;23564;48.290;11.460;2023-06-22T04:26:35;14.52;;;6.30;;
36321;SDS011;23564;48.290;11.460;2023-06-22T04:29:02;15.30;;;7.45;;
36321;SDS011;23564;48.290;11.460;2023-06-22T04:31:31;15.60;;;6.88;;
36321;SDS011;23564;48.290;11.460;2023-06-22T04:33:57;13.75;;;7.15;;
36321;SDS011;23564;48.290;11.460;2023-06-22T04:36:30;17.70;;;7.38;;
36321;SDS011;23564;48.290;11.460;2023-06-22T04:39:03;15.68;;;7.57;;
36321;SDS011;23564;48.290;11.460;2023-06-22T04:41:35;13.43;;;6.93;;
36321;SDS011;23564;48.290;11.460;2023-06-22T04:44:07;16.00;;;6.50;;
36321;SDS011;23564;48.290;11.460;2023-06-22T04:46:56;15.40;;;7.47;;
36321;SDS011;23564;48.290;11.460;2023-06-22T04:49:28;13.55;;;7.22;;
36321;SDS011;23564;48.290;11.460;2023-06-22T04:51:58;16.65;;;7.45;;
36321;SDS011;23564;48.290;11.460;2023-06-22T04:54:25;13.95;;;7.32;;
36321;SDS011;23564;48.290;11.460;2023-06-22T04:56:51;19.45;;;7.47;;
36321;SDS011;23564;48.290;11.460;2023-06-22T04:59:25;12.73;;;6.88;;
36321;SDS011;23564;48.290;11.460;2023-06-22T05:01:53;15.00;;;7.43;;
36321;SDS011;23564;48.290;11.460;2023-06-22T05:04:23;14.65;;;6.80;;
36321;SDS011;23564;48.290;11.460;2023-06-22T05:06:49;12.13;;;6.50;;
36321;SDS011;23564;48.290;11.460;2023-06-22T05:09:18;17.77;;;7.05;;
36321;SDS011;23564;48.290;11.460;2023-06-22T05:11:44;14.88;;;6.88;;
36321;SDS011;23564;48.290;11.460;2023-06-22T05:14:10;15.23;;;6.80;;
36321;SDS011;23564;48.290;11.460;2023-06-22T05:16:36;10.85;;;6.28;;
36321;SDS011;23564;48.290;11.460;2023-06-22T05:19:02;15.05;;;7.07;;
36321;SDS011;23564;48.290;11.460;2023-06-22T05:21:28;11.95;;;6.90;;
36321;SDS011;23564;48.290;11.460;2023-06-22T05:23:55;12.18;;;6.72;;
36321;SDS011;23564;48.290;11.460;2023-06-22T05:26:24;14.50;;;7.72;;
36321;SDS011;23564;48.290;11.460;2023-06-22T05:28:54;15.40;;;7.53;;
36321;SDS011;23564;48.290;11.460;2023-06-22T05:31:20;16.08;;;6.82;;
36321;SDS011;23564;48.290;11.460;2023-06-22T05:33:46;13.63;;;6.90;;
36321;SDS011;23564;48.290;11.460;2023-06-22T05:36:13;16.35;;;6.57;;
36321;SDS011;23564;48.290;11.460;2023-06-22T05:38:39;12.00;;;6.80;;
36321;SDS011;23564;48.290;11.460;2023-06-22T05:41:05;14.73;;;7.80;;
36321;SDS011;23564;48.290;11.460;2023-06-22T05:43:31;12.07;;;7.55;;
36321;SDS011;23564;48.290;11.460;2023-06-22T05:45:57;13.88;;;6.72;;
36321;SDS011;23564;48.290;11.460;2023-06-22T05:48:25;13.32;;;6.93;;
36321;SDS011;23564;48.290;11.460;2023-06-22T05:50:51;14.90;;;6.53;;
36321;SDS011;23564;48.290;11.460;2023-06-22T05:53:17;11.65;;;6.60;;
36321;SDS011;23564;48.290;11.460;2023-06-22T05:55:43;14.15;;;6.95;;
36321;SDS011;23564;48.290;11.460;2023-06-22T05:58:09;13.20;;;6.50;;
36321;SDS011;23564;48.290;11.460;2023-06-22T06:00:35;13.00;;;6.10;;
36321;SDS011;23564;48.290;11.460;2023-06-22T06:03:01;16.70;;;6.13;;
36321;SDS011;23564;48.290;11.460;2023-06-22T06:05:30;13.05;;;6.93;;
36321;SDS011;23564;48.290;11.460;2023-06-22T06:07:56;14.73;;;6.10;;
36321;SDS011;23564;48.290;11.460;2023-06-22T06:10:21;16.77;;;6.38;;
36321;SDS011;23564;48.290;11.460;2023-06-22T06:12:47;12.85;;;6.05;;
36321;SDS011;23564;48.290;11.460;2023-06-22T06:15:13;15.25;;;6.50;;
36321;SDS011;23564;48.290;11.460;2023-06-22T06:17:45;21.42;;;6.88;;
36321;SDS011;23564;48.290;11.460;2023-06-22T06:20:11;16.35;;;6.20;;
36321;SDS011;23564;48.290;11.460;2023-06-22T06:22:37;14.18;;;6.15;;
36321;SDS011;23564;48.290;11.460;2023-06-22T06:25:03;11.40;;;6.30;;
36321;SDS011;23564;48.290;11.460;2023-06-22T06:27:29;15.90;;;7.13;;
36321;SDS011;23564;48.290;11.460;2023-06-22T06:29:55;15.52;;;6.72;;
36321;SDS011;23564;48.290;11.460;2023-06-22T06:32:21;17.20;;;6.50;;
36321;SDS011;23564;48.290;11.460;2023-06-22T06:34:46;14.10;;;5.93;;
36321;SDS011;23564;48.290;11.460;2023-06-22T06:37:12;15.65;;;6.75;;
36321;SDS011;23564;48.290;11.460;2023-06-22T06:39:37;15.98;;;6.00;;
36321;SDS011;23564;48.290;11.460;2023-06-22T06:42:03;13.00;;;5.90;;
36321;SDS011;23564;48.290;11.460;2023-06-22T06:44:29;16.55;;;6.28;;
36321;SDS011;23564;48.290;11.460;2023-06-22T06:46:55;12.38;;;5.82;;
36321;SDS011;23564;48.290;11.460;2023-06-22T06:49:21;16.75;;;6.32;;
36321;SDS011;23564;48.290;11.460;2023-06-22T06:51:46;15.45;;;6.90;;
36321;SDS011;23564;48.290;11.460;2023-06-22T06:54:12;15.57;;;6.57;;
36321;SDS011;23564;48.290;11.460;2023-06-22T06:56:37;14.10;;;5.97;;
36321;SDS011;23564;48.290;11.460;2023-06-22T06:59:03;18.38;;;6.45;;
36321;SDS011;23564;48.290;11.460;2023-06-22T07:01:28;14.15;;;6.10;;
36321;SDS011;23564;48.290;11.460;2023-06-22T07:03:58;12.05;;;6.65;;
36321;SDS011;23564;48.290;11.460;2023-06-22T07:06:24;16.50;;;6.28;;
36321;SDS011;23564;48.290;11.460;2023-06-22T07:08:54;18.98;;;7.15;;
36321;SDS011;23564;48.290;11.460;2023-06-22T07:11:20;12.60;;;6.15;;
36321;SDS011;23564;48.290;11.460;2023-06-22T07:13:46;12.10;;;6.35;;
36321;SDS011;23564;48.290;11.460;2023-06-22T07:16:11;13.60;;;6.38;;
36321;SDS011;23564;48.290;11.460;2023-06-22T07:18:39;15.60;;;6.07;;
36321;SDS011;23564;48.290;11.460;2023-06-22T07:21:05;11.23;;;5.43;;
36321;SDS011;23564;48.290;11.460;2023-06-22T07:23:31;16.65;;;7.30;;
36321;SDS011;23564;48.290;11.460;2023-06-22T07:25:57;14.77;;;6.53;;
36321;SDS011;23564;48.290;11.460;2023-06-22T07:28:26;17.92;;;6.57;;
36321;SDS011;23564;48.290;11.460;2023-06-22T07:30:52;18.92;;;6.75;;
36321;SDS011;23564;48.290;11.460;2023-06-22T07:33:18;20.92;;;6.85;;
36321;SDS011;23564;48.290;11.460;2023-06-22T07:35:44;16.48;;;6.40;;
36321;SDS011;23564;48.290;11.460;2023-06-22T07:38:10;14.25;;;6.45;;
36321;SDS011;23564;48.290;11.460;2023-06-22T07:40:35;15.13;;;6.57;;
36321;SDS011;23564;48.290;11.460;2023-06-22T07:43:01;19.73;;;6.05;;
36321;SDS011;23564;48.290;11.460;2023-06-22T07:45:28;17.00;;;6.15;;
36321;SDS011;23564;48.290;11.460;2023-06-22T07:47:54;17.35;;;6.07;;
36321;SDS011;23564;48.290;11.460;2023-06-22T07:50:19;16.58;;;6.40;;
36321;SDS011;23564;48.290;11.460;2023-06-22T07:52:45;11.73;;;5.97;;
36321;SDS011;23564;48.290;11.460;2023-06-22T07:55:12;12.68;;;5.93;;
36321;SDS011;23564;48.290;11.460;2023-06-22T07:57:38;14.73;;;5.88;;
36321;SDS011;23564;48.290;11.460;2023-06-22T08:00:04;12.43;;;5.65;;
36321;SDS011;23564;48.290;11.460;2023-06-22T08:02:41;17.83;;;5.45;;
36321;SDS011;23564;48.290;11.460;2023-06-22T08:05:08;14.68;;;5.88;;
36321;SDS011;23564;48.290;11.460;2023-06-22T08:07:34;12.27;;;5.75;;
36321;SDS011;23564;48.290;11.460;2023-06-22T08:10:02;15.02;;;5.93;;
36321;SDS011;23564;48.290;11.460;2023-06-22T08:12:28;15.60;;;5.72;;
36321;SDS011;23564;48.290;11.460;2023-06-22T08:14:54;19.77;;;6.47;;
36321;SDS011;23564;48.290;11.460;2023-06-22T08:17:19;15.43;;;6.32;;
36321;SDS011;23564;48.290;11.460;2023-06-22T08:19:45;14.43;;;5.68;;
36321;SDS011;23564;48.290;11.460;2023-06-22T08:22:11;15.40;;;6.00;;
36321;SDS011;23564;48.290;11.460;2023-06-22T08:24:36;11.82;;;6.20;;
36321;SDS011;23564;48.290;11.460;2023-06-22T08:27:02;11.95;;;5.85;;
36321;SDS011;23564;48.290;11.460;2023-06-22T08:29:27;13.88;;;6.10;;
36321;SDS011;23564;48.290;11.460;2023-06-22T08:31:53;14.80;;;6.10;;
36321;SDS011;23564;48.290;11.460;2023-06-22T08:34:19;13.75;;;5.75;;
36321;SDS011;23564;48.290;11.460;2023-06-22T08:36:50;17.17;;;5.63;;
36321;SDS011;23564;48.290;11.460;2023-06-22T08:39:18;14.02;;;5.57;;
36321;SDS011;23564;48.290;11.460;2023-06-22T08:41:45;14.18;;;5.90;;
36321;SDS011;23564;48.290;11.460;2023-06-22T08:44:11;20.15;;;6.05;;
36321;SDS011;23564;48.290;11.460;2023-06-22T08:46:36;17.65;;;6.05;;
36321;SDS011;23564;48.290;11.460;2023-06-22T08:49:03;20.60;;;6.60;;
36321;SDS011;23564;48.290;11.460;2023-06-22T08:51:29;12.50;;;5.68;;
36321;SDS011;23564;48.290;11.460;2023-06-22T08:53:54;11.88;;;5.07;;
36321;SDS011;23564;48.290;11.460;2023-06-22T08:56:20;12.13;;;5.85;;
36321;SDS011;23564;48.290;11.460;2023-06-22T08:58:46;19.10;;;6.13;;
36321;SDS011;23564;48.290;11.460;2023-06-22T09:01:11;13.10;;;5.35;;
36321;SDS011;23564;48.290;11.460;2023-06-22T09:03:37;17.95;;;6.35;;
36321;SDS011;23564;48.290;11.460;2023-06-22T09:06:03;18.00;;;5.72;;
36321;SDS011;23564;48.290;11.460;2023-06-22T09:08:28;16.63;;;7.05;;
36321;SDS011;23564;48.290;11.460;2023-06-22T09:10:54;14.82;;;5.32;;
36321;SDS011;23564;48.290;11.460;2023-06-22T09:13:20;12.25;;;6.13;;
36321;SDS011;23564;48.290;11.460;2023-06-22T09:15:45;13.35;;;5.50;;
36321;SDS011;23564;48.290;11.460;2023-06-22T09:18:11;14.95;;;5.70;;
36321;SDS011;23564;48.290;11.460;2023-06-22T09:20:38;13.95;;;5.63;;
36321;SDS011;23564;48.290;11.460;2023-06-22T09:23:03;21.02;;;5.55;;
36321;SDS011;23564;48.290;11.460;2023-06-22T09:25:29;15.85;;;6.38;;
36321;SDS011;23564;48.290;11.460;2023-06-22T09:27:54;15.82;;;6.43;;
36321;SDS011;23564;48.290;11.460;2023-06-22T09:30:21;16.88;;;5.57;;
36321;SDS011;23564;48.290;11.460;2023-06-22T09:32:47;19.65;;;6.32;;
36321;SDS011;23564;48.290;11.460;2023-06-22T09:35:13;16.42;;;6.20;;
36321;SDS011;23564;48.290;11.460;2023-06-22T09:37:39;22.42;;;6.53;;
36321;SDS011;23564;48.290;11.460;2023-06-22T09:40:06;19.65;;;6.32;;
36321;SDS011;23564;48.290;11.460;2023-06-22T09:42:37;13.40;;;5.32;;
36321;SDS011;23564;48.290;11.460;2023-06-22T09:45:03;22.17;;;6.60;;
36321;SDS011;23564;48.290;11.460;2023-06-22T09:47:30;13.82;;;5.70;;
36321;SDS011;23564;48.290;11.460;2023-06-22T09:49:55;16.17;;;6.13;;
36321;SDS011;23564;48.290;11.460;2023-06-22T09:52:21;19.27;;;6.15;;
36321;SDS011;23564;48.290;11.460;2023-06-22T09:54:47;14.80;;;6.03;;
36321;SDS011;23564;48.290;11.460;2023-06-22T09:57:13;21.08;;;6.10;;
36321;SDS011;23564;48.290;11.460;2023-06-22T09:59:38;15.23;;;5.13;;
36321;SDS011;23564;48.290;11.460;2023-06-22T10:02:05;17.42;;;6.25;;
36321;SDS011;23564;48.290;11.460;2023-06-22T10:04:32;23.02;;;5.63;;
36321;SDS011;23564;48.290;11.460;2023-06-22T10:06:59;16.80;;;6.25;;
36321;SDS011;23564;48.290;11.460;2023-06-22T10:09:24;15.70;;;6.13;;
36321;SDS011;23564;48.290;11.460;2023-06-22T10:11:50;15.32;;;5.88;;
36321;SDS011;23564;48.290;11.460;2023-06-22T10:14:15;24.52;;;6.28;;
36321;SDS011;23564;48.290;11.460;2023-06-22T10:16:41;16.77;;;5.80;;
36321;SDS011;23564;48.290;11.460;2023-06-22T10:19:07;26.77;;;6.80;;
36321;SDS011;23564;48.290;11.460;2023-06-22T10:21:33;16.95;;;6.15;;
36321;SDS011;23564;48.290;11.460;2023-06-22T10:23:59;15.15;;;6.47;;
36321;SDS011;23564;48.290;11.460;2023-06-22T10:26:30;20.40;;;6.72;;
36321;SDS011;23564;48.290;11.460;2023-06-22T10:29:00;16.77;;;6.43;;
36321;SDS011;23564;48.290;11.460;2023-06-22T10:31:26;17.48;;;6.65;;
36321;SDS011;23564;48.290;11.460;2023-06-22T10:33:53;20.80;;;6.32;;
36321;SDS011;23564;48.290;11.460;2023-06-22T10:36:19;21.02;;;6.22;;
36321;SDS011;23564;48.290;11.460;2023-06-22T10:38:46;14.00;;;6.10;;
36321;SDS011;23564;48.290;11.460;2023-06-22T10:41:12;15.63;;;6.07;;
36321;SDS011;23564;48.290;11.460;2023-06-22T10:43:38;18.77;;;6.75;;
36321;SDS011;23564;48.290;11.460;2023-06-22T10:46:04;31.02;;;6.63;;
36321;SDS011;23564;48.290;11.460;2023-06-22T10:48:29;12.23;;;6.00;;
36321;SDS011;23564;48.290;11.460;2023-06-22T10:50:55;28.75;;;7.60;;
36321;SDS011;23564;48.290;11.460;2023-06-22T10:53:21;14.30;;;6.07;;
36321;SDS011;23564;48.290;11.460;2023-06-22T10:55:47;16.13;;;6.50;;
36321;SDS011;23564;48.290;11.460;2023-06-22T10:58:12;17.98;;;6.38;;
36321;SDS011;23564;48.290;11.460;2023-06-22T11:00:38;21.23;;;6.53;;
36321;SDS011;23564;48.290;11.460;2023-06-22T11:03:03;16.38;;;5.78;;
36321;SDS011;23564;48.290;11.460;2023-06-22T11:05:29;21.70;;;6.22;;
36321;SDS011;23564;48.290;11.460;2023-06-22T11:07:54;18.10;;;6.07;;
36321;SDS011;23564;48.290;11.460;2023-06-22T11:10:20;14.75;;;6.25;;
36321;SDS011;23564;48.290;11.460;2023-06-22T11:12:46;19.58;;;6.20;;
36321;SDS011;23564;48.290;11.460;2023-06-22T11:15:11;15.68;;;6.90;;
36321;SDS011;23564;48.290;11.460;2023-06-22T11:17:37;19.33;;;6.22;;
36321;SDS011;23564;48.290;11.460;2023-06-22T11:20:03;17.73;;;6.07;;
36321;SDS011;23564;48.290;11.460;2023-06-22T11:22:36;14.80;;;6.13;;
36321;SDS011;23564;48.290;11.460;2023-06-22T11:25:05;18.75;;;5.93;;
36321;SDS011;23564;48.290;11.460;2023-06-22T11:27:31;22.30;;;5.80;;
36321;SDS011;23564;48.290;11.460;2023-06-22T11:29:57;19.58;;;6.50;;
36321;SDS011;23564;48.290;11.460;2023-06-22T11:32:23;19.98;;;5.78;;
36321;SDS011;23564;48.290;11.460;2023-06-22T11:34:48;21.98;;;5.95;;
36321;SDS011;23564;48.290;11.460;2023-06-22T11:37:14;18.60;;;6.18;;
36321;SDS011;23564;48.290;11.460;2023-06-22T11:39:40;17.17;;;5.70;;
36321;SDS011;23564;48.290;11.460;2023-06-22T11:42:06;22.08;;;6.13;;
36321;SDS011;23564;48.290;11.460;2023-06-22T11:44:33;22.65;;;5.93;;
36321;SDS011;23564;48.290;11.460;2023-06-22T11:46:58;17.90;;;6.22;;
36321;SDS011;23564;48.290;11.460;2023-06-22T11:49:25;20.73;;;6.25;;
36321;SDS011;23564;48.290;11.460;2023-06-22T11:51:54;18.63;;;6.00;;
36321;SDS011;23564;48.290;11.460;2023-06-22T11:54:20;19.45;;;5.68;;
36321;SDS011;23564;48.290;11.460;2023-06-22T11:56:45;25.85;;;6.80;;
36321;SDS011;23564;48.290;11.460;2023-06-22T11:59:11;19.50;;;5.95;;
36321;SDS011;23564;48.290;11.460;2023-06-22T12:01:37;20.50;;;6.13;;
36321;SDS011;23564;48.290;11.460;2023-06-22T12:04:02;13.43;;;5.95;;
36321;SDS011;23564;48.290;11.460;2023-06-22T12:06:30;15.68;;;5.53;;
36321;SDS011;23564;48.290;11.460;2023-06-22T12:08:57;18.70;;;5.85;;
36321;SDS011;23564;48.290;11.460;2023-06-22T12:11:23;26.73;;;5.63;;
36321;SDS011;23564;48.290;11.460;2023-06-22T12:13:49;16.58;;;5.97;;
36321;SDS011;23564;48.290;11.460;2023-06-22T12:16:14;18.38;;;5.65;;
36321;SDS011;23564;48.290;11.460;2023-06-22T12:18:40;23.20;;;6.53;;
36321;SDS011;23564;48.290;11.460;2023-06-22T12:21:05;17.10;;;5.85;;
36321;SDS011;23564;48.290;11.460;2023-06-22T12:23:31;18.45;;;6.10;;
36321;SDS011;23564;48.290;11.460;2023-06-22T12:25:57;25.83;;;5.53;;
36321;SDS011;23564;48.290;11.460;2023-06-22T12:28:23;19.25;;;6.57;;
36321;SDS011;23564;48.290;11.460;2023-06-22T12:30:49;15.05;;;5.97;;
36321;SDS011;23564;48.290;11.460;2023-06-22T12:33:15;14.77;;;5.07;;
36321;SDS011;23564;48.290;11.460;2023-06-22T12:35:40;25.27;;;6.43;;
36321;SDS011;23564;48.290;11.460;2023-06-22T12:38:06;22.90;;;6.18;;
36321;SDS011;23564;48.290;11.460;2023-06-22T12:40:33;23.25;;;6.28;;
36321;SDS011;23564;48.290;11.460;2023-06-22T12:42:58;19.90;;;5.60;;
36321;SDS011;23564;48.290;11.460;2023-06-22T12:45:24;19.60;;;5.82;;
36321;SDS011;23564;48.290;11.460;2023-06-22T12:47:53;17.63;;;6.03;;
36321;SDS011;23564;48.290;11.460;2023-06-22T12:50:19;15.02;;;5.65;;
36321;SDS011;23564;48.290;11.460;2023-06-22T12:52:45;17.63;;;5.70;;
36321;SDS011;23564;48.290;11.460;2023-06-22T12:55:10;20.42;;;5.80;;
36321;SDS011;23564;48.290;11.460;2023-06-22T12:57:36;12.50;;;5.55;;
36321;SDS011;23564;48.290;11.460;2023-06-22T13:00:01;21.75;;;5.85;;
36321;SDS011;23564;48.290;11.460;2023-06-22T13:02:29;20.25;;;5.68;;
36321;SDS011;23564;48.290;11.460;2023-06-22T13:04:55;17.63;;;5.22;;
36321;SDS011;23564;48.290;11.460;2023-06-22T13:07:20;19.02;;;5.85;;
36321;SDS011;23564;48.290;11.460;2023-06-22T13:09:46;14.18;;;5.80;;
36321;SDS011;23564;48.290;11.460;2023-06-22T13:12:11;16.88;;;5.75;;
36321;SDS011;23564;48.290;11.460;2023-06-22T13:14:37;17.65;;;5.45;;
36321;SDS011;23564;48.290;11.460;2023-06-22T13:17:02;17.45;;;5.10;;
36321;SDS011;23564;48.290;11.460;2023-06-22T13:19:28;19.73;;;5.38;;
36321;SDS011;23564;48.290;11.460;2023-06-22T13:21:57;22.73;;;5.20;;
36321;SDS011;23564;48.290;11.460;2023-06-22T13:24:23;19.52;;;4.90;;
36321;SDS011;23564;48.290;11.460;2023-06-22T13:26:48;21.17;;;6.60;;
36321;SDS011;23564;48.290;11.460;2023-06-22T13:29:14;19.58;;;5.15;;
36321;SDS011;23564;48.290;11.460;2023-06-22T13:31:39;21.42;;;5.45;;
36321;SDS011;23564;48.290;11.460;2023-06-22T13:34:05;15.55;;;5.28;;
36321;SDS011;23564;48.290;11.460;2023-06-22T13:36:30;18.02;;;4.93;;
36321;SDS011;23564;48.290;11.460;2023-06-22T13:38:56;26.45;;;5.45;;
36321;SDS011;23564;48.290;11.460;2023-06-22T13:41:22;17.23;;;5.53;;
36321;SDS011;23564;48.290;11.460;2023-06-22T13:43:48;15.60;;;4.90;;
36321;SDS011;23564;48.290;11.460;2023-06-22T13:46:13;18.92;;;5.45;;
36321;SDS011;23564;48.290;11.460;2023-06-22T13:48:39;16.77;;;5.75;;
36321;SDS011;23564;48.290;11.460;2023-06-22T13:51:04;22.83;;;5.53;;
36321;SDS011;23564;48.290;11.460;2023-06-22T13:53:30;15.30;;;5.40;;
36321;SDS011;23564;48.290;11.460;2023-06-22T13:55:55;25.48;;;5.80;;
36321;SDS011;23564;48.290;11.460;2023-06-22T13:58:21;17.73;;;5.22;;
36321;SDS011;23564;48.290;11.460;2023-06-22T14:00:47;18.83;;;5.40;;
36321;SDS011;23564;48.290;11.460;2023-06-22T14:03:14;18.30;;;5.68;;
36321;SDS011;23564;48.290;11.460;2023-06-22T14:05:41;18.05;;;5.15;;
36321;SDS011;23564;48.290;11.460;2023-06-22T14:08:07;20.85;;;5.75;;
36321;SDS011;23564;48.290;11.460;2023-06-22T14:10:32;21.48;;;6.05;;
36321;SDS011;23564;48.290;11.460;2023-06-22T14:12:58;17.40;;;5.28;;
36321;SDS011;23564;48.290;11.460;2023-06-22T14:15:25;18.98;;;5.50;;
36321;SDS011;23564;48.290;11.460;2023-06-22T14:17:50;21.52;;;5.43;;
36321;SDS011;23564;48.290;11.460;2023-06-22T14:20:16;19.33;;;6.13;;
36321;SDS011;23564;48.290;11.460;2023-06-22T14:22:42;14.88;;;5.65;;